createdAt,value
2017-08-28T00:00:48.683Z,0
2017-08-28T00:01:50.574Z,0
2017-08-28T00:03:04.731Z,0
2017-08-28T00:04:06.612Z,0
2017-08-28T00:05:08.503Z,0
2017-08-28T00:06:10.383Z,0
2017-08-28T00:07:12.204Z,0
2017-08-28T00:08:14.025Z,0
2017-08-28T00:09:15.908Z,0
2017-08-28T00:10:17.788Z,0
2017-08-28T00:11:19.668Z,0
2017-08-28T00:12:33.828Z,0
2017-08-28T00:13:35.709Z,0
2017-08-28T00:14:37.591Z,0
2017-08-28T00:15:39.477Z,0
2017-08-28T00:16:41.293Z,0
2017-08-28T00:17:43.110Z,0
2017-08-28T00:18:44.992Z,0
2017-08-28T00:19:46.872Z,0
2017-08-28T00:20:48.761Z,0
2017-08-28T00:22:02.968Z,0
2017-08-28T00:23:04.850Z,0
2017-08-28T00:24:06.733Z,0
2017-08-28T00:25:08.613Z,0
2017-08-28T00:26:10.434Z,0
2017-08-28T00:27:12.255Z,0
2017-08-28T00:28:14.138Z,0
2017-08-28T00:29:16.019Z,0
2017-08-28T00:30:17.899Z,0
2017-08-28T00:31:32.052Z,0
2017-08-28T00:32:33.933Z,0
2017-08-28T00:33:35.812Z,0
2017-08-28T00:34:37.691Z,0
2017-08-28T00:35:39.513Z,0
2017-08-28T00:36:41.332Z,0
2017-08-28T00:37:43.210Z,0
2017-08-28T00:38:45.102Z,0
2017-08-28T00:39:46.978Z,0
2017-08-28T00:41:01.145Z,0
2017-08-28T00:42:03.035Z,0
2017-08-28T00:43:04.925Z,0
2017-08-28T00:44:06.803Z,0
2017-08-28T00:45:08.624Z,0
2017-08-28T00:46:10.444Z,0
2017-08-28T00:47:12.336Z,0
2017-08-28T00:48:14.216Z,0
2017-08-28T00:49:16.100Z,0
2017-08-28T00:50:30.251Z,0
2017-08-28T00:51:32.131Z,0
2017-08-28T00:52:34.009Z,0
2017-08-28T00:53:35.886Z,0
2017-08-28T00:54:37.708Z,0
2017-08-28T00:55:39.526Z,0
2017-08-28T00:56:41.407Z,0
2017-08-28T00:57:43.287Z,0
2017-08-28T00:58:45.165Z,0
2017-08-28T00:59:59.320Z,0
2017-08-28T01:01:01.201Z,0
2017-08-28T01:02:03.081Z,0
2017-08-28T01:03:04.959Z,0
2017-08-28T01:04:06.782Z,0
2017-08-28T01:05:08.599Z,0
2017-08-28T01:06:10.479Z,0
2017-08-28T01:07:12.361Z,0
2017-08-28T01:08:14.242Z,0
2017-08-28T01:09:28.397Z,0
2017-08-28T01:10:30.275Z,0
2017-08-28T01:11:32.166Z,0
2017-08-28T01:12:34.045Z,0
2017-08-28T01:13:35.868Z,0
2017-08-28T01:14:37.687Z,0
2017-08-28T01:15:39.570Z,0
2017-08-28T01:16:41.455Z,0
2017-08-28T01:17:43.334Z,0
2017-08-28T01:18:57.499Z,0
2017-08-28T01:19:59.380Z,0
2017-08-28T01:21:01.261Z,0
2017-08-28T01:22:03.143Z,0
2017-08-28T01:23:04.967Z,0
2017-08-28T01:24:06.782Z,0
2017-08-28T01:25:08.662Z,0
2017-08-28T01:26:10.543Z,0
2017-08-28T01:27:12.425Z,0
2017-08-28T01:28:26.591Z,0
2017-08-28T01:29:28.474Z,0
2017-08-28T01:30:30.367Z,0
2017-08-28T01:31:32.248Z,0
2017-08-28T01:32:34.081Z,0
2017-08-28T01:33:35.905Z,0
2017-08-28T01:34:37.786Z,0
2017-08-28T01:35:39.668Z,0
2017-08-28T01:36:41.550Z,0
2017-08-28T01:37:55.707Z,0
2017-08-28T01:38:57.588Z,0
2017-08-28T01:39:59.474Z,0
2017-08-28T01:41:01.364Z,0
2017-08-28T01:42:03.191Z,0
2017-08-28T01:43:05.011Z,0
2017-08-28T01:44:06.893Z,0
2017-08-28T01:45:08.776Z,0
2017-08-28T01:46:10.658Z,0
2017-08-28T01:47:24.816Z,0
2017-08-28T01:48:26.697Z,0
2017-08-28T01:49:28.581Z,0
2017-08-28T01:50:30.472Z,0
2017-08-28T01:51:32.295Z,0
2017-08-28T01:52:34.116Z,0
2017-08-28T01:53:36.001Z,0
2017-08-28T01:54:37.881Z,0
2017-08-28T01:55:39.767Z,0
2017-08-28T01:56:53.970Z,0
2017-08-28T01:57:55.851Z,0
2017-08-28T01:58:57.738Z,0
2017-08-28T01:59:59.621Z,0
2017-08-28T02:01:01.443Z,0
2017-08-28T02:02:03.262Z,0
2017-08-28T02:03:05.155Z,0
2017-08-28T02:04:07.037Z,0
2017-08-28T02:05:08.919Z,0
2017-08-28T02:06:23.081Z,0
2017-08-28T02:07:24.964Z,0
2017-08-28T02:08:26.843Z,0
2017-08-28T02:09:28.727Z,0
2017-08-28T02:10:30.545Z,0
2017-08-28T02:11:32.365Z,0
2017-08-28T02:12:34.250Z,0
2017-08-28T02:13:36.133Z,0
2017-08-28T02:14:38.014Z,0
2017-08-28T02:15:52.172Z,0
2017-08-28T02:16:54.053Z,0
2017-08-28T02:17:55.941Z,0
2017-08-28T02:18:57.822Z,0
2017-08-28T02:19:59.642Z,0
2017-08-28T02:21:01.465Z,0
2017-08-28T02:22:03.350Z,0
2017-08-28T02:23:05.230Z,0
2017-08-28T02:24:07.123Z,0
2017-08-28T02:25:21.262Z,0
2017-08-28T02:26:23.082Z,0
2017-08-28T02:27:24.908Z,0
2017-08-28T02:28:26.725Z,0
2017-08-28T02:29:28.544Z,0
2017-08-28T02:30:30.427Z,0
2017-08-28T02:31:32.309Z,0
2017-08-28T02:32:34.167Z,0
2017-08-28T02:33:36.000Z,0
2017-08-28T02:34:50.162Z,0
2017-08-28T02:35:52.038Z,0
2017-08-28T02:36:53.917Z,0
2017-08-28T02:37:55.799Z,0
2017-08-28T02:38:57.734Z,0
2017-08-28T02:39:59.522Z,0
2017-08-28T02:41:01.406Z,0
2017-08-28T02:42:03.284Z,0
2017-08-28T02:43:05.163Z,0
2017-08-28T02:44:19.320Z,0
2017-08-28T02:45:21.208Z,0
2017-08-28T02:46:23.085Z,0
2017-08-28T02:47:24.978Z,0
2017-08-28T02:48:26.786Z,0
2017-08-28T02:49:28.607Z,0
2017-08-28T02:50:30.494Z,0
2017-08-28T02:51:32.376Z,0
2017-08-28T02:52:34.259Z,0
2017-08-28T02:53:48.415Z,0
2017-08-28T02:54:50.297Z,0
2017-08-28T02:55:52.191Z,0
2017-08-28T02:56:54.078Z,0
2017-08-28T02:57:55.891Z,0
2017-08-28T02:58:57.711Z,0
2017-08-28T02:59:59.594Z,0
2017-08-28T03:01:01.475Z,0
2017-08-28T03:02:03.369Z,0
2017-08-28T03:03:17.525Z,0
2017-08-28T03:04:19.407Z,0
2017-08-28T03:05:21.296Z,0
2017-08-28T03:06:23.178Z,0
2017-08-28T03:07:25.009Z,0
2017-08-28T03:08:26.823Z,0
2017-08-28T03:09:28.708Z,0
2017-08-28T03:10:30.587Z,0
2017-08-28T03:11:32.481Z,0
2017-08-28T03:12:46.638Z,0
2017-08-28T03:13:48.520Z,0
2017-08-28T03:14:50.411Z,0
2017-08-28T03:15:52.285Z,0
2017-08-28T03:16:54.106Z,0
2017-08-28T03:17:55.933Z,0
2017-08-28T03:18:57.811Z,0
2017-08-28T03:19:59.703Z,0
2017-08-28T03:21:01.591Z,0
2017-08-28T03:22:15.750Z,0
2017-08-28T03:23:17.624Z,0
2017-08-28T03:24:19.511Z,0
2017-08-28T03:25:21.390Z,0
2017-08-28T03:26:23.209Z,0
2017-08-28T03:27:25.030Z,0
2017-08-28T03:28:26.916Z,0
2017-08-28T03:29:28.797Z,0
2017-08-28T03:30:30.680Z,0
2017-08-28T03:31:44.833Z,0
2017-08-28T03:32:46.714Z,0
2017-08-28T03:33:48.600Z,0
2017-08-28T03:34:50.496Z,0
2017-08-28T03:35:52.327Z,0
2017-08-28T03:36:54.149Z,0
2017-08-28T03:37:56.035Z,0
2017-08-28T03:38:57.926Z,0
2017-08-28T03:39:59.802Z,0
2017-08-28T03:41:14.008Z,0
2017-08-28T03:42:15.890Z,0
2017-08-28T03:43:17.783Z,0
2017-08-28T03:44:19.656Z,0
2017-08-28T03:45:21.477Z,0
2017-08-28T03:46:23.299Z,0
2017-08-28T03:47:25.186Z,0
2017-08-28T03:48:27.068Z,0
2017-08-28T03:49:28.960Z,0
2017-08-28T03:50:43.116Z,0
2017-08-28T03:51:44.997Z,0
2017-08-28T03:52:46.891Z,0
2017-08-28T03:53:48.771Z,0
2017-08-28T03:54:50.592Z,0
2017-08-28T03:55:52.414Z,0
2017-08-28T03:56:54.299Z,0
2017-08-28T03:57:56.180Z,0
2017-08-28T03:58:58.068Z,0
2017-08-28T04:00:12.221Z,0
2017-08-28T04:01:14.105Z,0
2017-08-28T04:02:15.995Z,0
2017-08-28T04:03:17.879Z,0
2017-08-28T04:04:19.701Z,0
2017-08-28T04:05:21.523Z,0
2017-08-28T04:06:23.419Z,5
2017-08-28T04:07:25.304Z,5
2017-08-28T04:08:27.187Z,5
2017-08-28T04:09:41.347Z,5
2017-08-28T04:10:43.231Z,5
2017-08-28T04:11:45.113Z,5
2017-08-28T04:12:46.994Z,5
2017-08-28T04:13:48.827Z,10
2017-08-28T04:14:50.663Z,10
2017-08-28T04:15:52.549Z,10
2017-08-28T04:16:54.445Z,10
2017-08-28T04:17:56.331Z,10
2017-08-28T04:19:10.489Z,15
2017-08-28T04:20:12.373Z,15
2017-08-28T04:21:14.271Z,15
2017-08-28T04:22:16.156Z,15
2017-08-28T04:23:17.984Z,20
2017-08-28T04:24:19.805Z,20
2017-08-28T04:25:21.691Z,20
2017-08-28T04:26:23.580Z,20
2017-08-28T04:27:25.466Z,25
2017-08-28T04:28:39.638Z,25
2017-08-28T04:29:41.547Z,25
2017-08-28T04:30:43.435Z,30
2017-08-28T04:31:45.333Z,30
2017-08-28T04:32:47.157Z,30
2017-08-28T04:33:48.981Z,30
2017-08-28T04:34:50.866Z,35
2017-08-28T04:35:52.754Z,35
2017-08-28T04:36:54.651Z,35
2017-08-28T04:38:08.828Z,35
2017-08-28T04:39:10.706Z,35
2017-08-28T04:40:12.593Z,40
2017-08-28T04:41:14.480Z,40
2017-08-28T04:42:16.304Z,40
2017-08-28T04:43:18.140Z,40
2017-08-28T04:44:20.029Z,40
2017-08-28T04:45:21.915Z,40
2017-08-28T04:46:23.808Z,40
2017-08-28T04:47:37.966Z,40
2017-08-28T04:48:39.856Z,40
2017-08-28T04:49:41.741Z,40
2017-08-28T04:50:43.628Z,40
2017-08-28T04:51:45.465Z,40
2017-08-28T04:52:47.291Z,40
2017-08-28T04:53:49.180Z,45
2017-08-28T04:54:51.069Z,45
2017-08-28T04:55:52.957Z,40
2017-08-28T04:57:07.118Z,40
2017-08-28T04:58:09.003Z,40
2017-08-28T04:59:10.892Z,40
2017-08-28T05:00:12.780Z,40
2017-08-28T05:01:14.605Z,40
2017-08-28T05:02:16.432Z,40
2017-08-28T05:03:18.318Z,40
2017-08-28T05:04:20.205Z,40
2017-08-28T05:05:22.092Z,45
2017-08-28T05:06:36.257Z,45
2017-08-28T05:07:38.144Z,45
2017-08-28T05:08:40.031Z,45
2017-08-28T05:09:41.919Z,40
2017-08-28T05:10:43.743Z,40
2017-08-28T05:11:45.570Z,40
2017-08-28T05:12:47.456Z,40
2017-08-28T05:13:49.343Z,40
2017-08-28T05:14:51.231Z,45
2017-08-28T05:16:05.407Z,50
2017-08-28T05:17:07.290Z,50
2017-08-28T05:18:09.177Z,55
2017-08-28T05:19:11.061Z,55
2017-08-28T05:20:12.897Z,60
2017-08-28T05:21:14.732Z,60
2017-08-28T05:22:16.621Z,65
2017-08-28T05:23:18.508Z,65
2017-08-28T05:24:20.409Z,65
2017-08-28T05:25:34.572Z,70
2017-08-28T05:26:36.461Z,75
2017-08-28T05:27:38.349Z,80
2017-08-28T05:28:40.236Z,85
2017-08-28T05:29:42.063Z,85
2017-08-28T05:30:43.890Z,90
2017-08-28T05:31:45.778Z,95
2017-08-28T05:32:47.666Z,95
2017-08-28T05:33:49.554Z,95
2017-08-28T05:35:03.766Z,95
2017-08-28T05:36:05.651Z,95
2017-08-28T05:37:07.541Z,95
2017-08-28T05:38:09.428Z,100
2017-08-28T05:39:11.254Z,100
2017-08-28T05:40:13.096Z,100
2017-08-28T05:41:14.983Z,100
2017-08-28T05:42:16.874Z,100
2017-08-28T05:43:18.762Z,105
2017-08-28T05:44:32.936Z,105
2017-08-28T05:45:34.822Z,105
2017-08-28T05:46:36.720Z,105
2017-08-28T05:47:38.609Z,105
2017-08-28T05:48:40.435Z,105
2017-08-28T05:49:42.263Z,105
2017-08-28T05:50:44.152Z,105
2017-08-28T05:51:46.060Z,105
2017-08-28T05:52:47.960Z,105
2017-08-28T05:54:02.147Z,105
2017-08-28T05:55:04.028Z,105
2017-08-28T05:56:05.922Z,110
2017-08-28T05:57:07.806Z,110
2017-08-28T05:58:09.644Z,110
2017-08-28T05:59:11.471Z,110
2017-08-28T06:00:13.365Z,110
2017-08-28T06:01:15.256Z,110
2017-08-28T06:02:17.152Z,110
2017-08-28T06:03:31.315Z,110
2017-08-28T06:04:33.212Z,110
2017-08-28T06:05:35.094Z,110
2017-08-28T06:06:36.982Z,115
2017-08-28T06:07:38.818Z,115
2017-08-28T06:08:40.644Z,115
2017-08-28T06:09:42.537Z,115
2017-08-28T06:10:44.424Z,115
2017-08-28T06:11:46.278Z,115
2017-08-28T06:13:00.481Z,115
2017-08-28T06:14:02.369Z,115
2017-08-28T06:15:04.272Z,120
2017-08-28T06:16:06.169Z,120
2017-08-28T06:17:08.009Z,120
2017-08-28T06:18:09.830Z,120
2017-08-28T06:19:11.719Z,120
2017-08-28T06:20:13.639Z,120
2017-08-28T06:21:15.502Z,120
2017-08-28T06:22:29.665Z,120
2017-08-28T06:23:31.554Z,120
2017-08-28T06:24:33.444Z,120
2017-08-28T06:25:35.336Z,120
2017-08-28T06:26:37.166Z,120
2017-08-28T06:27:38.993Z,120
2017-08-28T06:28:40.884Z,120
2017-08-28T06:29:42.772Z,120
2017-08-28T06:30:44.664Z,120
2017-08-28T06:31:58.831Z,120
2017-08-28T06:33:00.732Z,120
2017-08-28T06:34:02.610Z,120
2017-08-28T06:35:04.508Z,120
2017-08-28T06:36:06.327Z,125
2017-08-28T06:37:08.156Z,125
2017-08-28T06:38:10.046Z,125
2017-08-28T06:39:11.935Z,125
2017-08-28T06:40:13.825Z,125
2017-08-28T06:41:28.001Z,125
2017-08-28T06:42:29.890Z,125
2017-08-28T06:43:31.793Z,125
2017-08-28T06:44:33.683Z,125
2017-08-28T06:45:35.512Z,125
2017-08-28T06:46:37.338Z,125
2017-08-28T06:47:39.243Z,125
2017-08-28T06:48:41.135Z,125
2017-08-28T06:49:43.027Z,125
2017-08-28T06:50:57.191Z,125
2017-08-28T06:51:59.082Z,125
2017-08-28T06:53:00.972Z,130
2017-08-28T06:54:02.867Z,130
2017-08-28T06:55:04.691Z,130
2017-08-28T06:56:06.520Z,130
2017-08-28T06:57:08.410Z,130
2017-08-28T06:58:10.296Z,130
2017-08-28T06:59:12.187Z,130
2017-08-28T07:00:26.362Z,130
2017-08-28T07:01:28.251Z,130
2017-08-28T07:02:30.153Z,130
2017-08-28T07:03:32.069Z,130
2017-08-28T07:04:33.883Z,130
2017-08-28T07:05:35.713Z,130
2017-08-28T07:06:37.602Z,130
2017-08-28T07:07:39.489Z,130
2017-08-28T07:08:41.389Z,130
2017-08-28T07:09:55.566Z,130
2017-08-28T07:10:57.450Z,130
2017-08-28T07:11:59.340Z,130
2017-08-28T07:13:01.226Z,130
2017-08-28T07:14:03.094Z,130
2017-08-28T07:15:04.924Z,130
2017-08-28T07:16:06.752Z,130
2017-08-28T07:17:08.649Z,130
2017-08-28T07:18:10.532Z,130
2017-08-28T07:19:24.756Z,130
2017-08-28T07:20:26.646Z,130
2017-08-28T07:21:28.547Z,130
2017-08-28T07:22:30.441Z,130
2017-08-28T07:23:32.266Z,135
2017-08-28T07:24:34.093Z,135
2017-08-28T07:25:36.532Z,135
2017-08-28T07:26:38.412Z,135
2017-08-28T07:27:40.297Z,135
2017-08-28T07:28:54.473Z,135
2017-08-28T07:29:56.359Z,135
2017-08-28T07:30:58.249Z,135
2017-08-28T07:32:00.143Z,135
2017-08-28T07:33:01.966Z,140
2017-08-28T07:34:03.795Z,140
2017-08-28T07:35:05.682Z,140
2017-08-28T07:36:07.571Z,140
2017-08-28T07:37:09.458Z,140
2017-08-28T07:38:23.635Z,140
2017-08-28T07:39:25.522Z,140
2017-08-28T07:40:27.413Z,140
2017-08-28T07:41:29.297Z,140
2017-08-28T07:42:31.121Z,140
2017-08-28T07:43:32.947Z,140
2017-08-28T07:44:34.837Z,140
2017-08-28T07:45:36.727Z,140
2017-08-28T07:46:38.618Z,140
2017-08-28T07:47:52.786Z,140
2017-08-28T07:48:54.675Z,140
2017-08-28T07:49:56.565Z,140
2017-08-28T07:50:58.452Z,140
2017-08-28T07:52:00.280Z,140
2017-08-28T07:53:02.110Z,140
2017-08-28T07:54:03.999Z,140
2017-08-28T07:55:05.887Z,140
2017-08-28T07:56:07.776Z,140
2017-08-28T07:57:22.008Z,140
2017-08-28T07:58:23.897Z,140
2017-08-28T07:59:25.787Z,140
2017-08-28T08:00:27.686Z,140
2017-08-28T08:01:29.511Z,140
2017-08-28T08:02:31.339Z,140
2017-08-28T08:03:33.240Z,140
2017-08-28T08:04:35.131Z,140
2017-08-28T08:05:37.022Z,140
2017-08-28T08:06:51.189Z,140
2017-08-28T08:07:53.078Z,140
2017-08-28T08:08:54.969Z,140
2017-08-28T08:09:56.860Z,145
2017-08-28T08:10:58.700Z,150
2017-08-28T08:12:00.528Z,155
2017-08-28T08:13:02.424Z,160
2017-08-28T08:14:04.311Z,160
2017-08-28T08:15:06.205Z,165
2017-08-28T08:16:20.372Z,170
2017-08-28T08:17:22.266Z,175
2017-08-28T08:18:24.160Z,175
2017-08-28T08:19:26.048Z,180
2017-08-28T08:20:27.903Z,185
2017-08-28T08:21:29.702Z,195
2017-08-28T08:22:31.605Z,200
2017-08-28T08:23:33.493Z,195
2017-08-28T08:24:35.384Z,195
2017-08-28T08:25:49.598Z,205
2017-08-28T08:26:51.488Z,210
2017-08-28T08:27:53.379Z,210
2017-08-28T08:28:55.269Z,215
2017-08-28T08:29:57.099Z,220
2017-08-28T08:30:58.929Z,225
2017-08-28T08:32:00.818Z,225
2017-08-28T08:33:02.707Z,230
2017-08-28T08:34:04.599Z,235
2017-08-28T08:35:18.768Z,230
2017-08-28T08:36:20.658Z,230
2017-08-28T08:37:22.555Z,230
2017-08-28T08:38:24.443Z,235
2017-08-28T08:39:26.275Z,230
2017-08-28T08:40:28.106Z,220
2017-08-28T08:41:29.999Z,210
2017-08-28T08:42:31.901Z,200
2017-08-28T08:43:33.779Z,200
2017-08-28T08:44:48.000Z,195
2017-08-28T08:45:49.889Z,195
2017-08-28T08:46:51.779Z,200
2017-08-28T08:47:53.680Z,205
2017-08-28T08:48:55.511Z,215
2017-08-28T08:49:57.341Z,225
2017-08-28T08:50:59.235Z,225
2017-08-28T08:52:01.123Z,220
2017-08-28T08:53:03.023Z,220
2017-08-28T08:54:17.191Z,220
2017-08-28T08:55:19.083Z,220
2017-08-28T08:56:20.976Z,225
2017-08-28T08:57:22.867Z,225
2017-08-28T08:58:24.698Z,230
2017-08-28T08:59:26.529Z,220
2017-08-28T09:00:28.420Z,210
2017-08-28T09:01:30.313Z,210
2017-08-28T09:02:32.205Z,205
2017-08-28T09:03:46.372Z,205
2017-08-28T09:04:48.263Z,205
2017-08-28T09:05:50.155Z,205
2017-08-28T09:06:52.046Z,205
2017-08-28T09:07:53.875Z,215
2017-08-28T09:08:55.719Z,210
2017-08-28T09:09:57.611Z,210
2017-08-28T09:10:59.502Z,210
2017-08-28T09:12:01.406Z,210
2017-08-28T09:13:15.575Z,205
2017-08-28T09:14:17.464Z,210
2017-08-28T09:15:19.357Z,210
2017-08-28T09:16:21.244Z,210
2017-08-28T09:17:23.075Z,205
2017-08-28T09:18:24.906Z,205
2017-08-28T09:19:26.798Z,200
2017-08-28T09:20:28.700Z,195
2017-08-28T09:21:30.591Z,195
2017-08-28T09:22:44.756Z,200
2017-08-28T09:23:46.646Z,210
2017-08-28T09:24:48.550Z,215
2017-08-28T09:25:50.448Z,220
2017-08-28T09:26:52.279Z,220
2017-08-28T09:27:54.110Z,220
2017-08-28T09:28:56.026Z,215
2017-08-28T09:29:57.893Z,215
2017-08-28T09:30:59.784Z,215
2017-08-28T09:32:13.955Z,220
2017-08-28T09:33:15.844Z,225
2017-08-28T09:34:17.734Z,225
2017-08-28T09:35:19.623Z,230
2017-08-28T09:36:21.467Z,230
2017-08-28T09:37:23.296Z,235
2017-08-28T09:38:25.186Z,235
2017-08-28T09:39:27.085Z,230
2017-08-28T09:40:28.988Z,230
2017-08-28T09:41:43.156Z,225
2017-08-28T09:42:45.048Z,220
2017-08-28T09:43:46.934Z,215
2017-08-28T09:44:48.821Z,215
2017-08-28T09:45:50.651Z,210
2017-08-28T09:46:52.486Z,215
2017-08-28T09:47:54.378Z,215
2017-08-28T09:48:56.270Z,215
2017-08-28T09:49:58.161Z,215
2017-08-28T09:51:12.331Z,215
2017-08-28T09:52:14.223Z,220
2017-08-28T09:53:16.118Z,220
2017-08-28T09:54:18.008Z,225
2017-08-28T09:55:19.839Z,230
2017-08-28T09:56:21.671Z,235
2017-08-28T09:57:23.564Z,235
2017-08-28T09:58:25.413Z,235
2017-08-28T09:59:27.246Z,240
2017-08-28T10:00:41.413Z,245
2017-08-28T10:01:43.305Z,250
2017-08-28T10:02:45.195Z,255
2017-08-28T10:03:47.089Z,260
2017-08-28T10:04:48.919Z,260
2017-08-28T10:05:50.761Z,255
2017-08-28T10:06:52.666Z,255
2017-08-28T10:07:54.559Z,255
2017-08-28T10:08:56.453Z,260
2017-08-28T10:10:10.628Z,260
2017-08-28T10:11:12.525Z,260
2017-08-28T10:12:14.411Z,255
2017-08-28T10:13:16.306Z,250
2017-08-28T10:14:18.139Z,245
2017-08-28T10:15:19.972Z,245
2017-08-28T10:16:21.868Z,245
2017-08-28T10:17:23.761Z,240
2017-08-28T10:18:25.658Z,230
2017-08-28T10:19:39.831Z,220
2017-08-28T10:20:41.723Z,215
2017-08-28T10:21:43.616Z,210
2017-08-28T10:22:45.507Z,210
2017-08-28T10:23:47.343Z,215
2017-08-28T10:24:49.177Z,215
2017-08-28T10:25:51.075Z,210
2017-08-28T10:26:52.961Z,205
2017-08-28T10:27:54.863Z,205
2017-08-28T10:29:09.033Z,205
2017-08-28T10:30:10.926Z,205
2017-08-28T10:31:12.822Z,205
2017-08-28T10:32:14.727Z,205
2017-08-28T10:33:16.558Z,205
2017-08-28T10:34:18.376Z,205
2017-08-28T10:35:20.302Z,200
2017-08-28T10:36:22.198Z,200
2017-08-28T10:37:24.087Z,195
2017-08-28T10:38:38.252Z,190
2017-08-28T10:39:40.144Z,185
2017-08-28T10:40:42.041Z,180
2017-08-28T10:41:43.944Z,180
2017-08-28T10:42:45.764Z,175
2017-08-28T10:43:47.596Z,175
2017-08-28T10:44:49.489Z,175
2017-08-28T10:45:51.379Z,180
2017-08-28T10:46:53.302Z,185
2017-08-28T10:48:07.441Z,195
2017-08-28T10:49:09.330Z,190
2017-08-28T10:50:11.223Z,190
2017-08-28T10:51:13.111Z,190
2017-08-28T10:52:14.938Z,190
2017-08-28T10:53:16.779Z,195
2017-08-28T10:54:18.674Z,200
2017-08-28T10:55:20.569Z,205
2017-08-28T10:56:22.460Z,210
2017-08-28T10:57:36.631Z,215
2017-08-28T10:58:38.518Z,220
2017-08-28T10:59:40.419Z,215
2017-08-28T11:00:42.310Z,215
2017-08-28T11:01:44.141Z,215
2017-08-28T11:02:45.973Z,215
2017-08-28T11:03:47.865Z,220
2017-08-28T11:04:49.755Z,225
2017-08-28T11:05:51.658Z,225
2017-08-28T11:07:05.817Z,235
2017-08-28T11:08:07.709Z,240
2017-08-28T11:09:09.602Z,245
2017-08-28T11:10:11.494Z,255
2017-08-28T11:11:13.326Z,270
2017-08-28T11:12:15.158Z,260
2017-08-28T11:13:17.016Z,250
2017-08-28T11:14:18.847Z,240
2017-08-28T11:15:20.682Z,230
2017-08-28T11:16:34.849Z,230
2017-08-28T11:17:36.739Z,225
2017-08-28T11:18:38.634Z,225
2017-08-28T11:19:40.526Z,220
2017-08-28T11:20:42.356Z,225
2017-08-28T11:21:44.200Z,225
2017-08-28T11:22:46.093Z,230
2017-08-28T11:23:47.986Z,230
2017-08-28T11:24:49.876Z,225
2017-08-28T11:26:04.047Z,225
2017-08-28T11:27:05.937Z,230
2017-08-28T11:28:07.866Z,225
2017-08-28T11:29:09.726Z,230
2017-08-28T11:30:11.559Z,235
2017-08-28T11:31:13.392Z,240
2017-08-28T11:32:15.287Z,240
2017-08-28T11:33:17.178Z,235
2017-08-28T11:34:19.073Z,235
2017-08-28T11:35:33.243Z,230
2017-08-28T11:36:35.135Z,225
2017-08-28T11:37:37.027Z,220
2017-08-28T11:38:38.917Z,225
2017-08-28T11:39:40.755Z,220
2017-08-28T11:40:42.586Z,225
2017-08-28T11:41:44.477Z,225
2017-08-28T11:42:46.378Z,220
2017-08-28T11:43:48.272Z,215
2017-08-28T11:45:02.442Z,205
2017-08-28T11:46:04.331Z,205
2017-08-28T11:47:06.235Z,210
2017-08-28T11:48:08.143Z,210
2017-08-28T11:49:09.974Z,210
2017-08-28T11:50:11.807Z,205
2017-08-28T11:51:13.699Z,205
2017-08-28T11:52:15.597Z,205
2017-08-28T11:53:17.485Z,205
2017-08-28T11:54:31.656Z,215
2017-08-28T11:55:33.548Z,215
2017-08-28T11:56:35.438Z,205
2017-08-28T11:57:37.326Z,200
2017-08-28T11:58:39.153Z,190
2017-08-28T11:59:40.989Z,190
2017-08-28T12:00:42.883Z,185
2017-08-28T12:01:44.775Z,185
2017-08-28T12:02:46.669Z,185
2017-08-28T12:04:00.888Z,180
2017-08-28T12:05:02.778Z,180
2017-08-28T12:06:04.674Z,175
2017-08-28T12:07:06.567Z,180
2017-08-28T12:08:08.397Z,190
2017-08-28T12:09:10.228Z,195
2017-08-28T12:10:12.121Z,200
2017-08-28T12:11:14.021Z,210
2017-08-28T12:12:15.915Z,205
2017-08-28T12:13:30.084Z,205
2017-08-28T12:14:31.981Z,205
2017-08-28T12:15:33.868Z,205
2017-08-28T12:16:35.757Z,200
2017-08-28T12:17:37.590Z,195
2017-08-28T12:18:39.423Z,190
2017-08-28T12:19:41.313Z,190
2017-08-28T12:20:43.204Z,190
2017-08-28T12:21:45.097Z,185
2017-08-28T12:22:59.266Z,185
2017-08-28T12:24:01.153Z,190
2017-08-28T12:25:03.059Z,190
2017-08-28T12:26:04.952Z,200
2017-08-28T12:27:06.782Z,205
2017-08-28T12:28:08.615Z,205
2017-08-28T12:29:10.506Z,215
2017-08-28T12:30:12.410Z,215
2017-08-28T12:31:14.301Z,215
2017-08-28T12:32:28.473Z,225
2017-08-28T12:33:30.376Z,230
2017-08-28T12:34:32.262Z,225
2017-08-28T12:35:34.154Z,220
2017-08-28T12:36:35.991Z,215
2017-08-28T12:37:37.820Z,205
2017-08-28T12:38:39.714Z,205
2017-08-28T12:39:41.609Z,205
2017-08-28T12:40:43.500Z,210
2017-08-28T12:41:57.672Z,210
2017-08-28T12:42:59.564Z,215
2017-08-28T12:44:01.918Z,220
2017-08-28T12:45:03.774Z,225
2017-08-28T12:46:05.607Z,230
2017-08-28T12:47:07.440Z,235
2017-08-28T12:48:09.333Z,245
2017-08-28T12:49:11.235Z,250
2017-08-28T12:50:13.127Z,255
2017-08-28T12:51:27.279Z,265
2017-08-28T12:52:29.134Z,270
2017-08-28T12:53:30.972Z,270
2017-08-28T12:54:32.825Z,265
2017-08-28T12:55:34.716Z,265
2017-08-28T12:56:36.607Z,260
2017-08-28T12:57:38.456Z,260
2017-08-28T12:58:40.289Z,250
2017-08-28T12:59:42.128Z,245
2017-08-28T13:00:56.377Z,230
2017-08-28T13:01:58.269Z,225
2017-08-28T13:03:00.160Z,215
2017-08-28T13:04:02.053Z,210
2017-08-28T13:05:03.886Z,205
2017-08-28T13:06:05.723Z,195
2017-08-28T13:07:07.612Z,190
2017-08-28T13:08:09.514Z,195
2017-08-28T13:09:11.401Z,195
2017-08-28T13:10:25.577Z,205
2017-08-28T13:11:27.462Z,210
2017-08-28T13:12:29.359Z,210
2017-08-28T13:13:31.252Z,210
2017-08-28T13:14:33.081Z,205
2017-08-28T13:15:34.911Z,200
2017-08-28T13:16:36.800Z,200
2017-08-28T13:17:38.695Z,200
2017-08-28T13:18:40.584Z,195
2017-08-28T13:19:54.755Z,195
2017-08-28T13:20:56.651Z,190
2017-08-28T13:21:58.545Z,185
2017-08-28T13:23:00.446Z,185
2017-08-28T13:24:02.281Z,185
2017-08-28T13:25:04.108Z,185
2017-08-28T13:26:06.008Z,185
2017-08-28T13:27:07.889Z,185
2017-08-28T13:28:09.706Z,185
2017-08-28T13:29:23.885Z,185
2017-08-28T13:30:25.767Z,185
2017-08-28T13:31:27.659Z,185
2017-08-28T13:32:29.562Z,185
2017-08-28T13:33:31.395Z,190
2017-08-28T13:34:33.267Z,190
2017-08-28T13:35:35.099Z,195
2017-08-28T13:36:36.992Z,200
2017-08-28T13:37:38.892Z,200
2017-08-28T13:38:53.068Z,205
2017-08-28T13:39:54.966Z,205
2017-08-28T13:40:56.842Z,210
2017-08-28T13:41:58.737Z,210
2017-08-28T13:43:00.570Z,210
2017-08-28T13:44:02.406Z,215
2017-08-28T13:45:04.300Z,220
2017-08-28T13:46:06.196Z,220
2017-08-28T13:47:08.093Z,220
2017-08-28T13:48:22.279Z,220
2017-08-28T13:49:24.163Z,220
2017-08-28T13:50:26.058Z,220
2017-08-28T13:51:27.950Z,210
2017-08-28T13:52:29.779Z,200
2017-08-28T13:53:31.619Z,200
2017-08-28T13:54:33.516Z,200
2017-08-28T13:55:35.404Z,200
2017-08-28T13:56:37.300Z,200
2017-08-28T13:57:51.506Z,195
2017-08-28T13:58:53.397Z,195
2017-08-28T13:59:55.287Z,185
2017-08-28T14:00:57.189Z,180
2017-08-28T14:01:59.011Z,180
2017-08-28T14:03:00.854Z,185
2017-08-28T14:04:02.766Z,185
2017-08-28T14:05:04.650Z,190
2017-08-28T14:06:06.547Z,190
2017-08-28T14:07:20.727Z,195
2017-08-28T14:08:22.613Z,200
2017-08-28T14:09:24.502Z,205
2017-08-28T14:10:26.397Z,205
2017-08-28T14:11:28.228Z,200
2017-08-28T14:12:30.062Z,200
2017-08-28T14:13:31.975Z,200
2017-08-28T14:14:33.865Z,200
2017-08-28T14:15:35.760Z,200
2017-08-28T14:16:49.932Z,195
2017-08-28T14:17:51.827Z,190
2017-08-28T14:18:53.717Z,190
2017-08-28T14:19:55.609Z,190
2017-08-28T14:20:57.449Z,195
2017-08-28T14:21:59.274Z,195
2017-08-28T14:23:01.168Z,200
2017-08-28T14:24:03.057Z,200
2017-08-28T14:25:04.954Z,200
2017-08-28T14:26:19.126Z,205
2017-08-28T14:27:21.016Z,205
2017-08-28T14:28:22.921Z,210
2017-08-28T14:29:24.808Z,210
2017-08-28T14:30:26.637Z,210
2017-08-28T14:31:28.469Z,215
2017-08-28T14:32:30.361Z,215
2017-08-28T14:33:32.255Z,215
2017-08-28T14:34:34.151Z,215
2017-08-28T14:35:48.323Z,215
2017-08-28T14:36:50.214Z,215
2017-08-28T14:37:52.110Z,210
2017-08-28T14:38:54.001Z,205
2017-08-28T14:39:55.837Z,200
2017-08-28T14:40:57.671Z,200
2017-08-28T14:41:59.577Z,200
2017-08-28T14:43:01.456Z,200
2017-08-28T14:44:03.353Z,200
2017-08-28T14:45:17.558Z,210
2017-08-28T14:46:19.478Z,215
2017-08-28T14:47:21.372Z,215
2017-08-28T14:48:23.259Z,215
2017-08-28T14:49:25.091Z,220
2017-08-28T14:50:26.921Z,220
2017-08-28T14:51:28.780Z,215